Giddings, Texas
Current Conditions -  °F | °C
As of 11:35 AM on Monday 22 Dec 2014 (Local Time) from KGYB Reporting Station
Clear Clear  
Wind Chill: 64°   Ceiling: Unl
Heat Index: 64°   Visibility: 10mi
Dew Point: 54°   Wind: 12mph
Humidity: 71%   Direction: 220°SW
Pressure: 29.75"   Gusts: 16mph
Location:  30.18°N, 96.94°W
Report Text: KGYB 221735Z AUTO 22010G14KT 10SM CLR 18/12 A2975 RMK AO2 T01760123
Loading
Personal Weather Stations






























Interactive Weather Map New forecast layout! Learn more

10-Day Weather Forecast

Advertisements
Track Severe Weather on mobile